TimeCST,TemperatureF,Dew PointF,Humidity,Sea Level PressureIn,VisibilityMPH,Wind Direction,Wind SpeedMPH,Gust SpeedMPH,PrecipitationIn,Events,Conditions,WindDirDegrees,DateUTC
12:15 AM,34.9,27.1,73,29.92,10.0,ENE,12.7,18.4,N/A,,Clear,60,2013-02-26 06:15:00
12:35 AM,34.7,27.0,73,29.91,10.0,ENE,16.1,-,N/A,,Clear,70,2013-02-26 06:35:00
12:55 AM,34.7,27.0,73,29.91,10.0,ENE,11.5,19.6,N/A,,Clear,70,2013-02-26 06:55:00
1:15 AM,34.7,27.1,74,29.90,10.0,ENE,11.5,17.3,N/A,,Clear,60,2013-02-26 07:15:00
1:35 AM,34.3,27.1,75,29.87,10.0,ENE,15.0,-,N/A,,Clear,60,2013-02-26 07:35:00
1:55 AM,34.2,27.3,76,29.86,10.0,ENE,13.8,20.7,N/A,,Clear,60,2013-02-26 07:55:00
2:15 AM,34.0,27.3,77,29.85,10.0,ENE,10.4,18.4,N/A,,Clear,60,2013-02-26 08:15:00
2:35 AM,33.8,27.1,77,29.84,10.0,ENE,10.4,18.4,N/A,,Clear,70,2013-02-26 08:35:00
2:55 AM,34.0,27.0,75,29.81,10.0,ENE,13.8,21.9,N/A,,Clear,60,2013-02-26 08:55:00
3:15 AM,34.0,26.6,74,29.81,10.0,ENE,17.3,23.0,N/A,,Clear,70,2013-02-26 09:15:00
3:35 AM,33.8,26.6,75,29.80,10.0,ENE,18.4,21.9,N/A,,Scattered Clouds,70,2013-02-26 09:35:00
3:55 AM,33.8,26.4,74,29.78,10.0,ENE,19.6,25.3,N/A,,Scattered Clouds,60,2013-02-26 09:55:00
4:15 AM,33.4,26.2,75,29.77,10.0,ENE,15.0,26.5,N/A,,Scattered Clouds,70,2013-02-26 10:15:00
4:35 AM,33.6,25.7,73,29.75,10.0,ENE,16.1,23.0,N/A,,Scattered Clouds,70,2013-02-26 10:35:00
4:55 AM,33.8,25.5,72,29.73,10.0,ENE,17.3,27.6,N/A,,Clear,60,2013-02-26 10:55:00
5:15 AM,33.8,25.3,71,29.73,10.0,ENE,17.3,27.6,N/A,,Clear,70,2013-02-26 11:15:00
5:35 AM,33.8,24.8,70,29.72,10.0,ENE,18.4,25.3,N/A,,Scattered Clouds,60,2013-02-26 11:35:00
5:55 AM,33.8,24.8,70,29.70,10.0,NE,18.4,27.6,N/A,,Scattered Clouds,50,2013-02-26 11:55:00
6:15 AM,33.8,24.8,70,29.71,10.0,ENE,21.9,29.9,N/A,,Mostly Cloudy,60,2013-02-26 12:15:00
6:35 AM,34.0,24.8,69,29.73,10.0,ENE,18.4,28.8,N/A,,Overcast,70,2013-02-26 12:35:00
6:55 AM,34.2,24.8,69,29.73,10.0,ENE,16.1,25.3,N/A,,Overcast,70,2013-02-26 12:55:00
7:15 AM,34.2,24.8,69,29.71,10.0,ENE,19.6,26.5,N/A,,Mostly Cloudy,60,2013-02-26 13:15:00
7:35 AM,34.7,24.8,67,29.69,10.0,ENE,19.6,27.6,N/A,,Scattered Clouds,60,2013-02-26 13:35:00
7:55 AM,34.3,24.6,68,29.68,10.0,ENE,17.3,27.6,N/A,,Mostly Cloudy,60,2013-02-26 13:55:00
8:15 AM,34.5,24.4,67,29.66,10.0,ENE,18.4,28.8,N/A,,Scattered Clouds,60,2013-02-26 14:15:00
8:35 AM,34.7,24.6,67,29.64,10.0,ENE,18.4,27.6,N/A,,Scattered Clouds,70,2013-02-26 14:35:00
8:55 AM,34.9,24.6,66,29.61,10.0,NE,21.9,28.8,N/A,,Clear,50,2013-02-26 14:55:00
9:15 AM,34.7,26.1,71,29.58,10.0,NE,23.0,29.9,N/A,Snow,Snow,50,2013-02-26 15:15:00
9:35 AM,34.2,27.3,76,29.57,10.0,NE,17.3,28.8,N/A,,Light Drizzle,50,2013-02-26 15:35:00
9:55 AM,33.8,27.5,78,29.57,10.0,ENE,23.0,33.4,N/A,Rain,Light Rain,60,2013-02-26 15:55:00
10:15 AM,32.9,28.8,85,29.57,4.0,ENE,18.4,33.4,0.02,Rain,Rain,60,2013-02-26 16:15:00
10:35 AM,32.5,29.7,89,29.58,2.5,ENE,18.4,26.5,0.08,Rain,Rain,70,2013-02-26 16:35:00
10:55 AM,32.4,30.0,91,29.57,3.0,NE,13.8,26.5,0.11,Rain,Light Rain,50,2013-02-26 16:55:00
11:15 AM,32.4,30.2,92,29.56,3.0,NE,13.8,25.3,0.03,Snow,Light Snow,50,2013-02-26 17:15:00
11:35 AM,32.4,30.2,92,29.55,4.0,NE,16.1,25.3,0.03,Snow,Light Snow,50,2013-02-26 17:35:00
11:55 AM,32.2,30.7,94,29.53,1.2,NE,13.8,23.0,0.03,Snow,Light Snow,40,2013-02-26 17:55:00
12:15 PM,32.2,31.1,96,29.53,1.0,NE,15.0,24.2,0.01,Snow,Light Snow,50,2013-02-26 18:15:00
12:35 PM,32.0,31.1,96,29.51,0.8,NE,17.3,21.9,0.02,Snow,Light Snow,40,2013-02-26 18:35:00
12:55 PM,32.0,31.5,98,29.50,0.8,NE,12.7,23.0,0.02,Snow,Light Snow,40,2013-02-26 18:55:00
1:15 PM,32.0,31.6,99,29.51,0.8,NE,13.8,20.7,0.01,Snow,Light Snow,50,2013-02-26 19:15:00
1:35 PM,32.2,31.6,98,29.50,1.2,NE,10.4,19.6,0.02,Snow,Light Snow,40,2013-02-26 19:35:00
1:55 PM,32.4,31.6,97,29.50,2.5,NE,18.4,25.3,0.02,Snow,Light Snow,40,2013-02-26 19:55:00
2:15 PM,32.4,31.5,96,29.49,1.5,NE,16.1,25.3,N/A,Snow,Light Snow,40,2013-02-26 20:15:00
2:35 PM,32.4,31.5,96,29.49,1.5,NE,15.0,19.6,N/A,Snow,Light Snow,40,2013-02-26 20:35:00
2:55 PM,32.2,31.5,97,29.49,1.2,NNE,17.3,24.2,N/A,Snow,Light Snow,30,2013-02-26 20:55:00
3:15 PM,32.4,31.5,96,29.49,1.5,NNE,15.0,23.0,N/A,Snow,Light Snow,30,2013-02-26 21:15:00
3:35 PM,32.4,31.5,96,29.49,1.5,NE,13.8,24.2,N/A,Snow,Light Snow,40,2013-02-26 21:35:00
3:55 PM,32.2,31.3,96,29.49,2.5,NNE,13.8,25.3,N/A,Snow,Light Snow,30,2013-02-26 21:55:00
4:15 PM,32.2,31.3,96,29.49,2.5,NE,16.1,26.5,N/A,Snow,Light Snow,40,2013-02-26 22:15:00
4:35 PM,32.2,31.1,96,29.49,2.5,NE,17.3,24.2,N/A,Snow,Light Snow,40,2013-02-26 22:35:00
4:55 PM,32.0,31.1,96,29.50,1.2,NE,15.0,21.9,N/A,Snow,Light Snow,40,2013-02-26 22:55:00
5:15 PM,32.0,31.5,98,29.50,1.5,NE,15.0,-,N/A,Snow,Light Snow,40,2013-02-26 23:15:00
5:35 PM,32.2,31.5,97,29.51,2.5,NE,16.1,23.0,N/A,Snow,Light Snow,40,2013-02-26 23:35:00
5:55 PM,32.4,31.5,96,29.51,4.0,NNE,13.8,20.7,N/A,Snow,Light Snow,30,2013-02-26 23:55:00
6:15 PM,32.4,31.6,97,29.51,4.0,NE,12.7,23.0,N/A,Snow,Light Snow,40,2013-02-27 00:15:00
6:35 PM,32.5,31.6,96,29.51,4.0,NE,15.0,18.4,N/A,Snow,Light Snow,40,2013-02-27 00:35:00
6:55 PM,32.7,31.6,96,29.51,4.0,NE,15.0,20.7,N/A,Snow,Light Snow,40,2013-02-27 00:55:00
7:15 PM,32.9,31.6,95,29.51,5.0,NNE,15.0,20.7,N/A,Snow,Light Snow,30,2013-02-27 01:15:00
7:35 PM,32.9,31.6,95,29.51,5.0,NNE,15.0,21.9,N/A,,Overcast,30,2013-02-27 01:35:00
7:55 PM,32.9,31.6,95,29.51,5.0,NE,15.0,23.0,N/A,,Overcast,40,2013-02-27 01:55:00
8:15 PM,32.7,31.6,96,29.51,2.5,NNE,11.5,-,N/A,Snow,Light Snow,30,2013-02-27 02:15:00
8:35 PM,32.7,31.8,96,29.51,3.0,NNE,12.7,16.1,N/A,Snow,Light Snow,30,2013-02-27 02:35:00
8:55 PM,32.9,31.8,96,29.51,4.0,NE,10.4,-,N/A,Snow,Light Snow,40,2013-02-27 02:55:00
9:15 PM,32.9,31.8,96,29.51,5.0,NNE,9.2,17.3,N/A,Snow,Light Snow,30,2013-02-27 03:15:00
9:35 PM,32.9,31.8,96,29.51,4.0,NNE,8.1,-,N/A,Snow,Light Snow,20,2013-02-27 03:35:00
9:55 PM,32.9,31.8,96,29.51,5.0,NNE,9.2,-,N/A,Snow,Light Snow,20,2013-02-27 03:55:00
10:15 PM,32.9,31.8,96,29.51,5.0,NNE,10.4,-,N/A,Rain,Light Rain,20,2013-02-27 04:15:00
10:35 PM,32.9,31.8,96,29.51,5.0,NNE,9.2,16.1,N/A,Rain,Light Rain,20,2013-02-27 04:35:00
10:55 PM,32.9,31.8,96,29.51,7.0,NNE,8.1,-,N/A,Rain,Light Rain,20,2013-02-27 04:55:00
11:15 PM,32.9,31.8,96,29.51,7.0,NNE,8.1,-,N/A,,Drizzle,20,2013-02-27 05:15:00
11:35 PM,32.9,31.8,96,29.51,5.0,NNE,9.2,-,N/A,,Drizzle,20,2013-02-27 05:35:00
11:55 PM,32.9,31.8,96,29.51,5.0,North,6.9,-,N/A,,Drizzle,10,2013-02-27 05:55:00